sensor_id;sensor_type;location;lat;lon;timestamp;temperature;humidity
5901;DHT22;2976;49.764;9.796;2022-11-24T00:01:53;6.20;99.90
5901;DHT22;2976;49.764;9.796;2022-11-24T00:04:19;6.30;99.90
5901;DHT22;2976;49.764;9.796;2022-11-24T00:06:44;6.30;99.90
5901;DHT22;2976;49.764;9.796;2022-11-24T00:09:10;6.30;99.90
5901;DHT22;2976;49.764;9.796;2022-11-24T00:11:36;6.30;99.90
5901;DHT22;2976;49.764;9.796;2022-11-24T00:14:02;6.30;99.90
5901;DHT22;2976;49.764;9.796;2022-11-24T00:16:30;6.40;99.90
5901;DHT22;2976;49.764;9.796;2022-11-24T00:18:58;6.40;99.90
5901;DHT22;2976;49.764;9.796;2022-11-24T00:21:25;6.40;99.90
5901;DHT22;2976;49.764;9.796;2022-11-24T00:23:51;6.50;99.90
5901;DHT22;2976;49.764;9.796;2022-11-24T00:26:22;6.50;99.90
5901;DHT22;2976;49.764;9.796;2022-11-24T00:28:50;6.40;99.90
5901;DHT22;2976;49.764;9.796;2022-11-24T00:33:54;6.20;99.90
5901;DHT22;2976;49.764;9.796;2022-11-24T00:36:21;6.10;99.90
5901;DHT22;2976;49.764;9.796;2022-11-24T00:38:55;6.00;99.90
5901;DHT22;2976;49.764;9.796;2022-11-24T00:41:22;5.90;99.90
5901;DHT22;2976;49.764;9.796;2022-11-24T00:43:47;5.80;99.90
5901;DHT22;2976;49.764;9.796;2022-11-24T00:46:13;5.80;99.90
5901;DHT22;2976;49.764;9.796;2022-11-24T00:48:39;5.70;99.90
5901;DHT22;2976;49.764;9.796;2022-11-24T00:51:07;5.70;99.90
5901;DHT22;2976;49.764;9.796;2022-11-24T00:53:33;5.70;99.90
5901;DHT22;2976;49.764;9.796;2022-11-24T00:55:59;5.70;99.90
5901;DHT22;2976;49.764;9.796;2022-11-24T00:58:24;5.60;99.90
5901;DHT22;2976;49.764;9.796;2022-11-24T01:00:51;5.50;99.90
5901;DHT22;2976;49.764;9.796;2022-11-24T01:03:18;5.50;99.90
5901;DHT22;2976;49.764;9.796;2022-11-24T01:05:44;5.50;99.90
5901;DHT22;2976;49.764;9.796;2022-11-24T01:08:10;5.50;99.90
5901;DHT22;2976;49.764;9.796;2022-11-24T01:10:36;5.50;99.90
5901;DHT22;2976;49.764;9.796;2022-11-24T01:13:02;5.40;99.90
5901;DHT22;2976;49.764;9.796;2022-11-24T01:15:28;5.40;99.90
5901;DHT22;2976;49.764;9.796;2022-11-24T01:17:54;5.50;99.90
5901;DHT22;2976;49.764;9.796;2022-11-24T01:20:20;5.50;99.90
5901;DHT22;2976;49.764;9.796;2022-11-24T01:22:47;5.50;99.90
5901;DHT22;2976;49.764;9.796;2022-11-24T01:25:12;5.50;99.90
5901;DHT22;2976;49.764;9.796;2022-11-24T01:27:38;5.60;99.90
5901;DHT22;2976;49.764;9.796;2022-11-24T01:30:05;5.70;99.90
5901;DHT22;2976;49.764;9.796;2022-11-24T01:32:32;5.80;99.90
5901;DHT22;2976;49.764;9.796;2022-11-24T01:34:58;5.90;99.90
5901;DHT22;2976;49.764;9.796;2022-11-24T01:37:24;6.00;99.90
5901;DHT22;2976;49.764;9.796;2022-11-24T01:39:49;6.00;99.90
5901;DHT22;2976;49.764;9.796;2022-11-24T01:42:15;6.00;99.90
5901;DHT22;2976;49.764;9.796;2022-11-24T01:44:40;6.00;99.90
5901;DHT22;2976;49.764;9.796;2022-11-24T01:47:19;6.00;99.90
5901;DHT22;2976;49.764;9.796;2022-11-24T01:49:50;6.00;99.90
5901;DHT22;2976;49.764;9.796;2022-11-24T01:52:45;6.10;99.90
5901;DHT22;2976;49.764;9.796;2022-11-24T01:55:22;6.20;99.90
5901;DHT22;2976;49.764;9.796;2022-11-24T01:58:04;6.20;99.90
5901;DHT22;2976;49.764;9.796;2022-11-24T02:00:30;6.30;99.90
5901;DHT22;2976;49.764;9.796;2022-11-24T02:02:57;6.30;99.90
5901;DHT22;2976;49.764;9.796;2022-11-24T02:05:36;6.30;99.90
5901;DHT22;2976;49.764;9.796;2022-11-24T02:08:03;6.30;99.90
5901;DHT22;2976;49.764;9.796;2022-11-24T02:10:32;6.20;99.90
5901;DHT22;2976;49.764;9.796;2022-11-24T02:12:58;6.20;99.90
5901;DHT22;2976;49.764;9.796;2022-11-24T02:15:25;6.20;99.90
5901;DHT22;2976;49.764;9.796;2022-11-24T02:17:51;6.10;99.90
5901;DHT22;2976;49.764;9.796;2022-11-24T02:20:17;6.10;99.90
5901;DHT22;2976;49.764;9.796;2022-11-24T02:28:04;6.20;99.90
5901;DHT22;2976;49.764;9.796;2022-11-24T02:30:31;6.10;99.90
5901;DHT22;2976;49.764;9.796;2022-11-24T02:32:57;6.20;99.90
5901;DHT22;2976;49.764;9.796;2022-11-24T02:35:25;6.20;99.90
5901;DHT22;2976;49.764;9.796;2022-11-24T02:37:51;6.20;99.90
5901;DHT22;2976;49.764;9.796;2022-11-24T02:40:20;6.20;99.90
5901;DHT22;2976;49.764;9.796;2022-11-24T02:42:51;6.40;99.90
5901;DHT22;2976;49.764;9.796;2022-11-24T02:45:19;6.30;99.90
5901;DHT22;2976;49.764;9.796;2022-11-24T02:47:45;6.30;99.90
5901;DHT22;2976;49.764;9.796;2022-11-24T02:50:11;6.40;99.90
5901;DHT22;2976;49.764;9.796;2022-11-24T02:52:37;6.40;99.90
5901;DHT22;2976;49.764;9.796;2022-11-24T02:55:03;6.30;99.90
5901;DHT22;2976;49.764;9.796;2022-11-24T02:57:28;6.40;99.90
5901;DHT22;2976;49.764;9.796;2022-11-24T02:59:54;6.30;99.90
5901;DHT22;2976;49.764;9.796;2022-11-24T03:02:20;6.30;99.90
5901;DHT22;2976;49.764;9.796;2022-11-24T03:04:45;6.30;99.90
5901;DHT22;2976;49.764;9.796;2022-11-24T03:07:11;6.30;99.90
5901;DHT22;2976;49.764;9.796;2022-11-24T03:09:36;6.30;99.90
5901;DHT22;2976;49.764;9.796;2022-11-24T03:12:02;6.40;99.90
5901;DHT22;2976;49.764;9.796;2022-11-24T03:14:27;6.30;99.90
5901;DHT22;2976;49.764;9.796;2022-11-24T03:16:53;6.30;99.90
5901;DHT22;2976;49.764;9.796;2022-11-24T03:19:19;6.30;99.90
5901;DHT22;2976;49.764;9.796;2022-11-24T03:21:44;6.40;99.90
5901;DHT22;2976;49.764;9.796;2022-11-24T03:24:09;6.30;99.90
5901;DHT22;2976;49.764;9.796;2022-11-24T03:26:35;6.30;99.90
5901;DHT22;2976;49.764;9.796;2022-11-24T03:29:01;6.20;99.90
5901;DHT22;2976;49.764;9.796;2022-11-24T03:31:27;6.30;99.90
5901;DHT22;2976;49.764;9.796;2022-11-24T03:33:52;6.30;99.90
5901;DHT22;2976;49.764;9.796;2022-11-24T03:36:18;6.30;99.90
5901;DHT22;2976;49.764;9.796;2022-11-24T03:38:44;6.30;99.90
5901;DHT22;2976;49.764;9.796;2022-11-24T03:41:09;6.20;99.90
5901;DHT22;2976;49.764;9.796;2022-11-24T03:43:35;6.20;99.90
5901;DHT22;2976;49.764;9.796;2022-11-24T03:46:01;6.10;99.90
5901;DHT22;2976;49.764;9.796;2022-11-24T03:48:26;6.10;99.90
5901;DHT22;2976;49.764;9.796;2022-11-24T03:53:18;6.00;99.90
5901;DHT22;2976;49.764;9.796;2022-11-24T03:55:43;5.90;99.90
5901;DHT22;2976;49.764;9.796;2022-11-24T03:58:09;5.90;99.90
5901;DHT22;2976;49.764;9.796;2022-11-24T04:00:34;5.90;99.90
5901;DHT22;2976;49.764;9.796;2022-11-24T04:03:00;5.90;99.90
5901;DHT22;2976;49.764;9.796;2022-11-24T04:05:25;5.90;99.90
5901;DHT22;2976;49.764;9.796;2022-11-24T04:07:54;5.80;99.90
5901;DHT22;2976;49.764;9.796;2022-11-24T04:10:22;5.80;99.90
5901;DHT22;2976;49.764;9.796;2022-11-24T04:12:47;5.80;99.90
5901;DHT22;2976;49.764;9.796;2022-11-24T04:15:16;5.90;99.90
5901;DHT22;2976;49.764;9.796;2022-11-24T04:17:42;5.80;99.90
5901;DHT22;2976;49.764;9.796;2022-11-24T04:20:09;5.80;99.90
5901;DHT22;2976;49.764;9.796;2022-11-24T04:22:35;5.70;99.90
5901;DHT22;2976;49.764;9.796;2022-11-24T04:25:01;5.70;99.90
5901;DHT22;2976;49.764;9.796;2022-11-24T04:27:27;5.80;99.90
5901;DHT22;2976;49.764;9.796;2022-11-24T04:29:52;5.80;99.90
5901;DHT22;2976;49.764;9.796;2022-11-24T04:32:18;5.80;99.90
5901;DHT22;2976;49.764;9.796;2022-11-24T04:34:43;5.90;99.90
5901;DHT22;2976;49.764;9.796;2022-11-24T04:37:09;6.00;99.90
5901;DHT22;2976;49.764;9.796;2022-11-24T04:39:35;6.10;99.90
5901;DHT22;2976;49.764;9.796;2022-11-24T04:42:00;6.10;99.90
5901;DHT22;2976;49.764;9.796;2022-11-24T04:44:26;6.00;99.90
5901;DHT22;2976;49.764;9.796;2022-11-24T04:46:51;5.90;99.90
5901;DHT22;2976;49.764;9.796;2022-11-24T04:49:17;5.90;99.90
5901;DHT22;2976;49.764;9.796;2022-11-24T04:51:43;5.80;99.90
5901;DHT22;2976;49.764;9.796;2022-11-24T04:54:10;5.80;99.90
5901;DHT22;2976;49.764;9.796;2022-11-24T04:56:36;5.80;99.90
5901;DHT22;2976;49.764;9.796;2022-11-24T04:59:02;5.70;99.90
5901;DHT22;2976;49.764;9.796;2022-11-24T05:01:27;5.70;99.90
5901;DHT22;2976;49.764;9.796;2022-11-24T05:03:54;5.80;99.90
5901;DHT22;2976;49.764;9.796;2022-11-24T05:06:20;5.80;99.90
5901;DHT22;2976;49.764;9.796;2022-11-24T05:08:47;5.90;99.90
5901;DHT22;2976;49.764;9.796;2022-11-24T05:11:13;5.80;99.90
5901;DHT22;2976;49.764;9.796;2022-11-24T05:13:38;5.70;99.90
5901;DHT22;2976;49.764;9.796;2022-11-24T05:16:05;5.70;99.90
5901;DHT22;2976;49.764;9.796;2022-11-24T05:18:30;5.70;99.90
5901;DHT22;2976;49.764;9.796;2022-11-24T05:20:57;5.80;99.90
5901;DHT22;2976;49.764;9.796;2022-11-24T05:23:23;5.90;99.90
5901;DHT22;2976;49.764;9.796;2022-11-24T05:25:48;6.00;99.90
5901;DHT22;2976;49.764;9.796;2022-11-24T05:28:14;6.00;99.90
5901;DHT22;2976;49.764;9.796;2022-11-24T05:30:40;6.10;99.90
5901;DHT22;2976;49.764;9.796;2022-11-24T05:33:07;6.20;99.90
5901;DHT22;2976;49.764;9.796;2022-11-24T05:35:34;6.20;99.90
5901;DHT22;2976;49.764;9.796;2022-11-24T05:38:01;6.20;99.90
5901;DHT22;2976;49.764;9.796;2022-11-24T05:40:27;6.20;99.90
5901;DHT22;2976;49.764;9.796;2022-11-24T05:42:52;6.30;99.90
5901;DHT22;2976;49.764;9.796;2022-11-24T05:45:20;6.30;99.90
5901;DHT22;2976;49.764;9.796;2022-11-24T05:47:46;6.30;99.90
5901;DHT22;2976;49.764;9.796;2022-11-24T05:50:14;6.40;99.90
5901;DHT22;2976;49.764;9.796;2022-11-24T05:52:40;6.40;99.90
5901;DHT22;2976;49.764;9.796;2022-11-24T05:55:06;6.40;99.90
5901;DHT22;2976;49.764;9.796;2022-11-24T05:57:32;6.40;99.90
5901;DHT22;2976;49.764;9.796;2022-11-24T05:59:57;6.30;99.90
5901;DHT22;2976;49.764;9.796;2022-11-24T06:02:23;6.30;99.90
5901;DHT22;2976;49.764;9.796;2022-11-24T06:04:49;6.30;99.90
5901;DHT22;2976;49.764;9.796;2022-11-24T06:07:15;6.20;99.90
5901;DHT22;2976;49.764;9.796;2022-11-24T06:09:41;6.20;99.90
5901;DHT22;2976;49.764;9.796;2022-11-24T06:12:09;6.20;99.90
5901;DHT22;2976;49.764;9.796;2022-11-24T06:14:35;6.20;99.90
5901;DHT22;2976;49.764;9.796;2022-11-24T06:17:01;6.20;99.90
5901;DHT22;2976;49.764;9.796;2022-11-24T06:19:27;6.20;99.90
5901;DHT22;2976;49.764;9.796;2022-11-24T06:21:53;6.20;99.90
5901;DHT22;2976;49.764;9.796;2022-11-24T06:24:18;6.20;99.90
5901;DHT22;2976;49.764;9.796;2022-11-24T06:26:44;6.10;99.90
5901;DHT22;2976;49.764;9.796;2022-11-24T06:29:09;6.10;99.90
5901;DHT22;2976;49.764;9.796;2022-11-24T06:31:35;6.10;99.90
5901;DHT22;2976;49.764;9.796;2022-11-24T06:34:00;6.10;99.90
5901;DHT22;2976;49.764;9.796;2022-11-24T06:36:26;6.20;99.90
5901;DHT22;2976;49.764;9.796;2022-11-24T06:38:52;6.20;99.90
5901;DHT22;2976;49.764;9.796;2022-11-24T06:41:18;6.10;99.90
5901;DHT22;2976;49.764;9.796;2022-11-24T06:43:44;6.20;99.90
5901;DHT22;2976;49.764;9.796;2022-11-24T06:46:10;6.10;99.90
5901;DHT22;2976;49.764;9.796;2022-11-24T06:48:36;6.20;99.90
5901;DHT22;2976;49.764;9.796;2022-11-24T06:51:06;6.20;99.90
5901;DHT22;2976;49.764;9.796;2022-11-24T06:53:33;6.20;99.90
5901;DHT22;2976;49.764;9.796;2022-11-24T06:56:12;6.30;99.90
5901;DHT22;2976;49.764;9.796;2022-11-24T06:58:43;6.30;99.90
5901;DHT22;2976;49.764;9.796;2022-11-24T07:01:13;6.30;99.90
5901;DHT22;2976;49.764;9.796;2022-11-24T07:03:39;6.30;99.90
5901;DHT22;2976;49.764;9.796;2022-11-24T07:06:05;6.30;99.90
5901;DHT22;2976;49.764;9.796;2022-11-24T07:08:31;6.30;99.90
5901;DHT22;2976;49.764;9.796;2022-11-24T07:11:03;6.30;99.90
5901;DHT22;2976;49.764;9.796;2022-11-24T07:13:29;6.40;99.90
5901;DHT22;2976;49.764;9.796;2022-11-24T07:15:55;6.40;99.90
5901;DHT22;2976;49.764;9.796;2022-11-24T07:18:20;6.40;99.90
5901;DHT22;2976;49.764;9.796;2022-11-24T07:20:46;6.50;99.90
5901;DHT22;2976;49.764;9.796;2022-11-24T07:23:11;6.50;99.90
5901;DHT22;2976;49.764;9.796;2022-11-24T07:25:37;6.60;99.90
5901;DHT22;2976;49.764;9.796;2022-11-24T07:28:02;6.60;99.90
5901;DHT22;2976;49.764;9.796;2022-11-24T07:30:28;6.70;99.90
5901;DHT22;2976;49.764;9.796;2022-11-24T07:32:58;6.70;99.90
5901;DHT22;2976;49.764;9.796;2022-11-24T07:35:24;6.70;99.90
5901;DHT22;2976;49.764;9.796;2022-11-24T07:37:52;6.70;99.90
5901;DHT22;2976;49.764;9.796;2022-11-24T07:40:18;6.80;99.90
5901;DHT22;2976;49.764;9.796;2022-11-24T07:42:43;6.80;99.90
5901;DHT22;2976;49.764;9.796;2022-11-24T07:45:09;6.80;99.90
5901;DHT22;2976;49.764;9.796;2022-11-24T07:47:38;6.80;99.90
5901;DHT22;2976;49.764;9.796;2022-11-24T07:50:04;6.80;99.90
5901;DHT22;2976;49.764;9.796;2022-11-24T07:52:30;6.80;99.90
5901;DHT22;2976;49.764;9.796;2022-11-24T07:54:56;6.70;99.90
5901;DHT22;2976;49.764;9.796;2022-11-24T07:57:21;6.70;99.90
5901;DHT22;2976;49.764;9.796;2022-11-24T07:59:47;6.70;99.90
5901;DHT22;2976;49.764;9.796;2022-11-24T08:02:13;6.80;99.90
5901;DHT22;2976;49.764;9.796;2022-11-24T08:04:38;6.80;99.90
5901;DHT22;2976;49.764;9.796;2022-11-24T08:07:04;6.80;99.90
5901;DHT22;2976;49.764;9.796;2022-11-24T08:09:29;6.90;99.90
5901;DHT22;2976;49.764;9.796;2022-11-24T08:11:55;6.90;99.90
5901;DHT22;2976;49.764;9.796;2022-11-24T08:14:20;6.90;99.90
5901;DHT22;2976;49.764;9.796;2022-11-24T08:16:46;6.90;99.90
5901;DHT22;2976;49.764;9.796;2022-11-24T08:19:11;6.90;99.90
5901;DHT22;2976;49.764;9.796;2022-11-24T08:21:37;6.90;99.90
5901;DHT22;2976;49.764;9.796;2022-11-24T08:24:03;6.90;99.90
5901;DHT22;2976;49.764;9.796;2022-11-24T08:26:28;7.00;99.90
5901;DHT22;2976;49.764;9.796;2022-11-24T08:28:56;7.00;99.90
5901;DHT22;2976;49.764;9.796;2022-11-24T08:31:24;7.10;99.90
5901;DHT22;2976;49.764;9.796;2022-11-24T08:33:53;7.10;99.90
5901;DHT22;2976;49.764;9.796;2022-11-24T08:36:19;7.10;99.90
5901;DHT22;2976;49.764;9.796;2022-11-24T08:38:45;7.20;99.90
5901;DHT22;2976;49.764;9.796;2022-11-24T08:41:13;7.30;99.90
5901;DHT22;2976;49.764;9.796;2022-11-24T08:43:39;7.20;99.90
5901;DHT22;2976;49.764;9.796;2022-11-24T08:46:07;7.30;99.90
5901;DHT22;2976;49.764;9.796;2022-11-24T08:48:33;7.30;99.90
5901;DHT22;2976;49.764;9.796;2022-11-24T08:51:06;7.30;99.90
5901;DHT22;2976;49.764;9.796;2022-11-24T08:53:31;7.30;99.90
5901;DHT22;2976;49.764;9.796;2022-11-24T08:56:00;7.30;99.90
5901;DHT22;2976;49.764;9.796;2022-11-24T08:58:27;7.30;99.90
5901;DHT22;2976;49.764;9.796;2022-11-24T09:00:53;7.30;99.90
5901;DHT22;2976;49.764;9.796;2022-11-24T09:03:19;7.40;99.90
5901;DHT22;2976;49.764;9.796;2022-11-24T09:05:44;7.40;99.90
5901;DHT22;2976;49.764;9.796;2022-11-24T09:08:10;7.40;99.90
5901;DHT22;2976;49.764;9.796;2022-11-24T09:10:36;7.40;99.90
5901;DHT22;2976;49.764;9.796;2022-11-24T09:13:01;7.40;99.90
5901;DHT22;2976;49.764;9.796;2022-11-24T09:15:27;7.40;99.90
5901;DHT22;2976;49.764;9.796;2022-11-24T09:17:52;7.50;99.90
5901;DHT22;2976;49.764;9.796;2022-11-24T09:20:18;7.50;99.90
5901;DHT22;2976;49.764;9.796;2022-11-24T09:22:43;7.50;99.90
5901;DHT22;2976;49.764;9.796;2022-11-24T09:25:12;7.60;99.90
5901;DHT22;2976;49.764;9.796;2022-11-24T09:27:37;7.70;99.90
5901;DHT22;2976;49.764;9.796;2022-11-24T09:30:03;7.90;99.90
5901;DHT22;2976;49.764;9.796;2022-11-24T09:32:29;7.90;99.90
5901;DHT22;2976;49.764;9.796;2022-11-24T09:34:55;8.00;99.90
5901;DHT22;2976;49.764;9.796;2022-11-24T09:37:20;8.20;99.90
5901;DHT22;2976;49.764;9.796;2022-11-24T09:39:46;8.30;99.90
5901;DHT22;2976;49.764;9.796;2022-11-24T09:42:24;8.40;99.90
5901;DHT22;2976;49.764;9.796;2022-11-24T09:45:18;8.50;99.90
5901;DHT22;2976;49.764;9.796;2022-11-24T09:48:07;8.40;99.90
5901;DHT22;2976;49.764;9.796;2022-11-24T09:50:36;8.40;99.90
5901;DHT22;2976;49.764;9.796;2022-11-24T09:55:35;8.40;99.90
5901;DHT22;2976;49.764;9.796;2022-11-24T10:00:54;8.50;99.90
5901;DHT22;2976;49.764;9.796;2022-11-24T10:03:31;8.70;99.90
5901;DHT22;2976;49.764;9.796;2022-11-24T10:05:59;8.90;99.90
5901;DHT22;2976;49.764;9.796;2022-11-24T10:08:38;9.00;99.90
5901;DHT22;2976;49.764;9.796;2022-11-24T10:11:15;9.00;99.90
5901;DHT22;2976;49.764;9.796;2022-11-24T10:19:37;8.70;99.90
5901;DHT22;2976;49.764;9.796;2022-11-24T10:22:22;8.70;99.90
5901;DHT22;2976;49.764;9.796;2022-11-24T10:25:08;8.80;99.90
5901;DHT22;2976;49.764;9.796;2022-11-24T10:27:41;8.70;99.90
5901;DHT22;2976;49.764;9.796;2022-11-24T10:30:17;8.80;99.90
5901;DHT22;2976;49.764;9.796;2022-11-24T10:32:59;8.80;99.90
5901;DHT22;2976;49.764;9.796;2022-11-24T10:35:36;8.90;99.90
5901;DHT22;2976;49.764;9.796;2022-11-24T10:40:55;8.90;99.90
5901;DHT22;2976;49.764;9.796;2022-11-24T10:43:24;9.10;99.90
5901;DHT22;2976;49.764;9.796;2022-11-24T10:45:50;9.20;99.90
5901;DHT22;2976;49.764;9.796;2022-11-24T10:48:22;9.30;99.90
5901;DHT22;2976;49.764;9.796;2022-11-24T10:50:51;9.50;99.90
5901;DHT22;2976;49.764;9.796;2022-11-24T10:53:28;9.50;99.90
5901;DHT22;2976;49.764;9.796;2022-11-24T10:58:31;9.30;99.90
5901;DHT22;2976;49.764;9.796;2022-11-24T11:00:59;9.20;99.90
5901;DHT22;2976;49.764;9.796;2022-11-24T11:03:30;9.10;99.90
5901;DHT22;2976;49.764;9.796;2022-11-24T11:06:09;9.10;99.90
5901;DHT22;2976;49.764;9.796;2022-11-24T11:08:36;9.20;99.90
5901;DHT22;2976;49.764;9.796;2022-11-24T11:11:21;9.10;99.90
5901;DHT22;2976;49.764;9.796;2022-11-24T11:14:02;9.20;99.90
5901;DHT22;2976;49.764;9.796;2022-11-24T11:16:33;9.10;99.90
5901;DHT22;2976;49.764;9.796;2022-11-24T11:19:01;9.10;99.90
5901;DHT22;2976;49.764;9.796;2022-11-24T11:21:32;9.10;99.90
5901;DHT22;2976;49.764;9.796;2022-11-24T11:24:00;9.00;99.90
5901;DHT22;2976;49.764;9.796;2022-11-24T11:26:29;8.90;99.90
5901;DHT22;2976;49.764;9.796;2022-11-24T11:29:22;8.90;99.90
5901;DHT22;2976;49.764;9.796;2022-11-24T11:32:01;8.90;99.90
5901;DHT22;2976;49.764;9.796;2022-11-24T11:34:34;9.00;99.90
5901;DHT22;2976;49.764;9.796;2022-11-24T11:37:01;8.90;99.90
5901;DHT22;2976;49.764;9.796;2022-11-24T11:39:35;8.90;99.90
5901;DHT22;2976;49.764;9.796;2022-11-24T11:49:46;8.90;99.90
5901;DHT22;2976;49.764;9.796;2022-11-24T12:00:33;9.10;99.90
5901;DHT22;2976;49.764;9.796;2022-11-24T12:14:15;9.00;99.90
5901;DHT22;2976;49.764;9.796;2022-11-24T12:19:26;9.00;99.90
5901;DHT22;2976;49.764;9.796;2022-11-24T12:22:31;8.90;99.90
5901;DHT22;2976;49.764;9.796;2022-11-24T12:25:30;8.90;99.90
5901;DHT22;2976;49.764;9.796;2022-11-24T12:28:13;8.90;99.90
5901;DHT22;2976;49.764;9.796;2022-11-24T12:31:04;8.90;99.90
5901;DHT22;2976;49.764;9.796;2022-11-24T12:36:22;8.90;99.90
5901;DHT22;2976;49.764;9.796;2022-11-24T12:41:43;9.00;99.90
5901;DHT22;2976;49.764;9.796;2022-11-24T12:44:43;8.90;99.90
5901;DHT22;2976;49.764;9.796;2022-11-24T12:47:17;8.90;99.90
5901;DHT22;2976;49.764;9.796;2022-11-24T12:49:55;8.90;99.90
5901;DHT22;2976;49.764;9.796;2022-11-24T12:55:27;8.90;99.90
5901;DHT22;2976;49.764;9.796;2022-11-24T12:57:54;8.80;99.90
5901;DHT22;2976;49.764;9.796;2022-11-24T13:00:31;8.80;99.90
5901;DHT22;2976;49.764;9.796;2022-11-24T13:03:35;8.80;99.90
5901;DHT22;2976;49.764;9.796;2022-11-24T13:09:10;8.80;99.90
5901;DHT22;2976;49.764;9.796;2022-11-24T13:11:44;8.80;99.90
5901;DHT22;2976;49.764;9.796;2022-11-24T13:14:18;8.80;99.90
5901;DHT22;2976;49.764;9.796;2022-11-24T13:16:59;8.80;99.90
5901;DHT22;2976;49.764;9.796;2022-11-24T13:19:31;8.80;99.90
5901;DHT22;2976;49.764;9.796;2022-11-24T13:24:34;8.80;99.90
5901;DHT22;2976;49.764;9.796;2022-11-24T13:53:32;8.70;99.90
5901;DHT22;2976;49.764;9.796;2022-11-24T13:56:02;8.70;99.90
5901;DHT22;2976;49.764;9.796;2022-11-24T13:58:54;8.80;99.90
5901;DHT22;2976;49.764;9.796;2022-11-24T14:01:27;8.70;99.90
5901;DHT22;2976;49.764;9.796;2022-11-24T14:06:45;8.60;99.90
5901;DHT22;2976;49.764;9.796;2022-11-24T14:14:22;8.50;99.90
5901;DHT22;2976;49.764;9.796;2022-11-24T14:16:48;8.50;99.90
5901;DHT22;2976;49.764;9.796;2022-11-24T14:19:29;8.60;99.90
5901;DHT22;2976;49.764;9.796;2022-11-24T14:21:55;8.70;99.90
5901;DHT22;2976;49.764;9.796;2022-11-24T14:24:30;8.70;99.90
5901;DHT22;2976;49.764;9.796;2022-11-24T14:26:56;8.70;99.90
5901;DHT22;2976;49.764;9.796;2022-11-24T14:29:23;8.60;99.90
5901;DHT22;2976;49.764;9.796;2022-11-24T14:31:55;8.70;99.90
5901;DHT22;2976;49.764;9.796;2022-11-24T14:34:23;8.70;99.90
5901;DHT22;2976;49.764;9.796;2022-11-24T14:36:50;8.70;99.90
5901;DHT22;2976;49.764;9.796;2022-11-24T14:39:18;8.70;99.90
5901;DHT22;2976;49.764;9.796;2022-11-24T14:47:11;8.80;99.90
5901;DHT22;2976;49.764;9.796;2022-11-24T14:49:39;8.80;99.90
5901;DHT22;2976;49.764;9.796;2022-11-24T14:52:11;8.70;99.90
5901;DHT22;2976;49.764;9.796;2022-11-24T14:54:49;8.60;99.90
5901;DHT22;2976;49.764;9.796;2022-11-24T14:57:34;8.50;99.90
5901;DHT22;2976;49.764;9.796;2022-11-24T15:02:49;8.20;99.90
5901;DHT22;2976;49.764;9.796;2022-11-24T15:05:20;8.00;99.90
5901;DHT22;2976;49.764;9.796;2022-11-24T15:07:48;7.80;99.90
5901;DHT22;2976;49.764;9.796;2022-11-24T15:10:35;7.70;99.90
5901;DHT22;2976;49.764;9.796;2022-11-24T15:13:19;7.60;99.90
5901;DHT22;2976;49.764;9.796;2022-11-24T15:15:54;7.50;99.90
5901;DHT22;2976;49.764;9.796;2022-11-24T15:18:32;7.50;99.90
5901;DHT22;2976;49.764;9.796;2022-11-24T15:20:59;7.50;99.90
5901;DHT22;2976;49.764;9.796;2022-11-24T15:23:30;7.50;99.90
5901;DHT22;2976;49.764;9.796;2022-11-24T15:28:28;7.40;99.90
5901;DHT22;2976;49.764;9.796;2022-11-24T15:31:07;7.40;99.90
5901;DHT22;2976;49.764;9.796;2022-11-24T15:33:33;7.40;99.90
5901;DHT22;2976;49.764;9.796;2022-11-24T15:35:59;7.40;99.90
5901;DHT22;2976;49.764;9.796;2022-11-24T15:38:24;7.40;99.90
5901;DHT22;2976;49.764;9.796;2022-11-24T15:40:53;7.40;99.90
5901;DHT22;2976;49.764;9.796;2022-11-24T15:43:33;7.50;99.90
5901;DHT22;2976;49.764;9.796;2022-11-24T15:46:00;7.60;99.90
5901;DHT22;2976;49.764;9.796;2022-11-24T15:48:26;7.60;99.90
5901;DHT22;2976;49.764;9.796;2022-11-24T15:50:53;7.70;99.90
5901;DHT22;2976;49.764;9.796;2022-11-24T15:53:22;7.70;99.90
5901;DHT22;2976;49.764;9.796;2022-11-24T15:55:49;7.70;99.90
5901;DHT22;2976;49.764;9.796;2022-11-24T15:58:15;7.60;99.90
5901;DHT22;2976;49.764;9.796;2022-11-24T16:00:42;7.50;99.90
5901;DHT22;2976;49.764;9.796;2022-11-24T16:03:08;7.40;99.90
5901;DHT22;2976;49.764;9.796;2022-11-24T16:05:35;7.30;99.90
5901;DHT22;2976;49.764;9.796;2022-11-24T16:08:01;7.20;99.90
5901;DHT22;2976;49.764;9.796;2022-11-24T16:10:30;7.20;99.90
5901;DHT22;2976;49.764;9.796;2022-11-24T16:12:57;7.20;99.90
5901;DHT22;2976;49.764;9.796;2022-11-24T16:15:22;7.30;99.90
5901;DHT22;2976;49.764;9.796;2022-11-24T16:17:48;7.20;99.90
5901;DHT22;2976;49.764;9.796;2022-11-24T16:20:14;7.20;99.90
5901;DHT22;2976;49.764;9.796;2022-11-24T16:22:39;7.10;99.90
5901;DHT22;2976;49.764;9.796;2022-11-24T16:25:05;7.10;99.90
5901;DHT22;2976;49.764;9.796;2022-11-24T16:27:31;7.00;99.90
5901;DHT22;2976;49.764;9.796;2022-11-24T16:29:57;7.00;99.90
5901;DHT22;2976;49.764;9.796;2022-11-24T16:32:22;7.00;99.90
5901;DHT22;2976;49.764;9.796;2022-11-24T16:34:48;6.90;99.90
5901;DHT22;2976;49.764;9.796;2022-11-24T16:37:13;6.80;99.90
5901;DHT22;2976;49.764;9.796;2022-11-24T16:39:39;6.70;99.90
5901;DHT22;2976;49.764;9.796;2022-11-24T16:42:04;6.60;99.90
5901;DHT22;2976;49.764;9.796;2022-11-24T16:44:30;6.60;99.90
5901;DHT22;2976;49.764;9.796;2022-11-24T16:46:56;6.50;99.90
5901;DHT22;2976;49.764;9.796;2022-11-24T16:49:21;6.50;99.90
5901;DHT22;2976;49.764;9.796;2022-11-24T16:51:47;6.50;99.90
5901;DHT22;2976;49.764;9.796;2022-11-24T16:54:12;6.40;99.90
5901;DHT22;2976;49.764;9.796;2022-11-24T16:56:38;6.40;99.90
5901;DHT22;2976;49.764;9.796;2022-11-24T16:59:04;6.40;99.90
5901;DHT22;2976;49.764;9.796;2022-11-24T17:01:29;6.40;99.90
5901;DHT22;2976;49.764;9.796;2022-11-24T17:03:57;6.50;99.90
5901;DHT22;2976;49.764;9.796;2022-11-24T17:06:23;6.40;99.90
5901;DHT22;2976;49.764;9.796;2022-11-24T17:08:48;6.40;99.90
5901;DHT22;2976;49.764;9.796;2022-11-24T17:11:17;6.30;99.90
5901;DHT22;2976;49.764;9.796;2022-11-24T17:13:44;6.20;99.90
5901;DHT22;2976;49.764;9.796;2022-11-24T17:16:12;6.20;99.90
5901;DHT22;2976;49.764;9.796;2022-11-24T17:18:38;6.10;99.90
5901;DHT22;2976;49.764;9.796;2022-11-24T17:21:06;6.00;99.90
5901;DHT22;2976;49.764;9.796;2022-11-24T17:23:32;5.90;99.90
5901;DHT22;2976;49.764;9.796;2022-11-24T17:26:05;5.90;99.90
5901;DHT22;2976;49.764;9.796;2022-11-24T17:28:31;5.80;99.90
5901;DHT22;2976;49.764;9.796;2022-11-24T17:30:57;5.80;99.90
5901;DHT22;2976;49.764;9.796;2022-11-24T17:33:22;5.80;99.90
5901;DHT22;2976;49.764;9.796;2022-11-24T17:35:48;5.80;99.90
5901;DHT22;2976;49.764;9.796;2022-11-24T17:38:13;5.80;99.90
5901;DHT22;2976;49.764;9.796;2022-11-24T17:40:39;5.80;99.90
5901;DHT22;2976;49.764;9.796;2022-11-24T17:43:04;5.70;99.90
5901;DHT22;2976;49.764;9.796;2022-11-24T17:45:30;5.60;99.90
5901;DHT22;2976;49.764;9.796;2022-11-24T17:47:57;5.60;99.90
5901;DHT22;2976;49.764;9.796;2022-11-24T17:50:24;5.60;99.90
5901;DHT22;2976;49.764;9.796;2022-11-24T17:52:49;5.60;99.90
5901;DHT22;2976;49.764;9.796;2022-11-24T17:55:15;5.50;99.90
5901;DHT22;2976;49.764;9.796;2022-11-24T17:57:40;5.50;99.90
5901;DHT22;2976;49.764;9.796;2022-11-24T18:00:06;5.50;99.90
5901;DHT22;2976;49.764;9.796;2022-11-24T18:02:32;5.50;99.90
5901;DHT22;2976;49.764;9.796;2022-11-24T18:04:57;5.50;99.90
5901;DHT22;2976;49.764;9.796;2022-11-24T18:07:23;5.40;99.90
5901;DHT22;2976;49.764;9.796;2022-11-24T18:09:49;5.30;99.90
5901;DHT22;2976;49.764;9.796;2022-11-24T18:12:14;5.20;99.90
5901;DHT22;2976;49.764;9.796;2022-11-24T18:14:40;5.20;99.90
5901;DHT22;2976;49.764;9.796;2022-11-24T18:17:06;5.00;99.90
5901;DHT22;2976;49.764;9.796;2022-11-24T18:19:31;5.00;99.90
5901;DHT22;2976;49.764;9.796;2022-11-24T18:21:57;4.90;99.90